Concordia, Missouri
Current Conditions -  °F | °C
As of 7:58 AM on Monday 20 Oct 2014 (Local Time) from KSZL Reporting Station
Clear Clear  
Wind Chill: 51°   Ceiling: Unl
Heat Index: 51°   Visibility: 10mi
Dew Point: 49°   Wind: 7mph
Humidity: 95%   Direction: 240°WSW
Pressure: 30.01"   Gusts: NA
Location:  38.98°N, 93.57°W
Report Text: KSZL 201258Z 24006KT 10SM CLR 10/10 A3001 RMK AO2A SLP165 T01030095 $
Loading
Personal Weather Stations






























Interactive Weather Map New forecast layout! Learn more

10-Day Weather Forecast

Advertisements
Track Severe Weather on mobile